createdAt,value
2022-11-27T00:02:01.542Z,5.20
2022-11-27T00:04:49.155Z,6.65
2022-11-27T00:07:36.906Z,4.68
2022-11-27T00:10:24.554Z,5.18
2022-11-27T00:13:12.292Z,5.13
2022-11-27T00:16:00.013Z,5.97
2022-11-27T00:18:48.511Z,5.05
2022-11-27T00:21:36.858Z,5.10
2022-11-27T00:24:24.575Z,5.47
2022-11-27T00:27:12.173Z,4.97
2022-11-27T00:29:59.839Z,5.63
2022-11-27T00:32:47.447Z,6.40
2022-11-27T00:35:35.067Z,5.03
2022-11-27T00:38:22.907Z,5.50
2022-11-27T00:41:22.933Z,4.75
2022-11-27T00:44:12.256Z,3.90
2022-11-27T00:46:59.878Z,5.65
2022-11-27T00:49:47.565Z,4.93
2022-11-27T00:52:35.304Z,5.45
2022-11-27T00:55:22.975Z,5.53
2022-11-27T00:58:10.580Z,5.88
2022-11-27T01:01:07.225Z,5.38
2022-11-27T01:06:44.196Z,4.93
2022-11-27T01:09:31.840Z,4.80
2022-11-27T01:12:19.403Z,4.97
2022-11-27T01:15:07.526Z,5.03
2022-11-27T01:17:55.173Z,4.75
2022-11-27T01:20:42.799Z,4.80
2022-11-27T01:23:31.176Z,4.68
2022-11-27T01:26:19.218Z,5.00
2022-11-27T01:29:07.117Z,5.28
2022-11-27T01:31:54.722Z,4.78
2022-11-27T01:34:42.534Z,4.68
2022-11-27T01:37:30.221Z,4.50
2022-11-27T01:40:17.918Z,4.88
2022-11-27T01:43:06.409Z,5.30
2022-11-27T01:45:54.062Z,5.30
2022-11-27T01:48:41.713Z,5.20
2022-11-27T01:51:31.140Z,4.28
2022-11-27T01:54:21.310Z,5.10
2022-11-27T01:57:15.475Z,6.32
2022-11-27T02:00:05.797Z,5.18
2022-11-27T02:03:00.858Z,5.63
2022-11-27T02:05:48.474Z,4.95
2022-11-27T02:08:36.058Z,5.10
2022-11-27T02:11:29.891Z,5.00
2022-11-27T02:14:42.056Z,4.90
2022-11-27T02:17:54.852Z,4.88
2022-11-27T02:20:58.766Z,4.68
2022-11-27T02:24:11.974Z,5.55
2022-11-27T02:27:08.834Z,5.03
2022-11-27T02:30:00.765Z,5.28
2022-11-27T02:32:59.349Z,5.43
2022-11-27T02:35:50.233Z,4.82
2022-11-27T02:39:17.727Z,5.15
2022-11-27T02:42:15.663Z,4.22
2022-11-27T02:45:09.755Z,4.28
2022-11-27T02:47:58.512Z,4.60
2022-11-27T02:50:48.631Z,4.50
2022-11-27T02:53:43.092Z,4.72
2022-11-27T02:56:32.680Z,4.93
2022-11-27T02:59:22.019Z,5.32
2022-11-27T03:02:15.528Z,6.05
2022-11-27T03:05:08.902Z,3.97
2022-11-27T03:08:19.855Z,5.10
2022-11-27T03:11:10.968Z,4.93
2022-11-27T03:14:05.926Z,5.80
2022-11-27T03:17:06.925Z,4.28
2022-11-27T03:20:03.918Z,4.38
2022-11-27T03:22:56.240Z,4.10
2022-11-27T03:25:43.868Z,4.13
2022-11-27T03:28:32.699Z,4.00
2022-11-27T03:31:21.367Z,5.35
2022-11-27T03:34:09.261Z,5.00
2022-11-27T03:36:56.873Z,4.97
2022-11-27T03:39:44.801Z,4.28
2022-11-27T03:42:59.212Z,4.45
2022-11-27T03:46:01.186Z,3.60
2022-11-27T03:49:09.311Z,3.75
2022-11-27T03:52:22.319Z,4.18
2022-11-27T03:55:34.499Z,3.67
2022-11-27T03:58:27.958Z,3.65
2022-11-27T04:01:19.692Z,4.38
2022-11-27T04:04:07.496Z,5.45
2022-11-27T04:06:55.112Z,5.32
2022-11-27T04:09:42.694Z,4.97
2022-11-27T04:12:30.307Z,3.47
2022-11-27T04:15:17.954Z,3.85
2022-11-27T04:18:05.807Z,4.60
2022-11-27T04:20:53.530Z,3.85
2022-11-27T04:23:41.215Z,4.72
2022-11-27T04:26:28.854Z,4.63
2022-11-27T04:29:16.520Z,4.35
2022-11-27T04:32:05.293Z,3.78
2022-11-27T04:34:52.844Z,5.43
2022-11-27T04:37:40.508Z,4.13
2022-11-27T04:40:28.358Z,3.67
2022-11-27T04:43:15.934Z,4.03
2022-11-27T04:46:03.636Z,4.47
2022-11-27T04:48:51.304Z,4.13
2022-11-27T04:51:38.981Z,4.40
2022-11-27T04:54:26.664Z,4.63
2022-11-27T04:57:14.337Z,6.10
2022-11-27T05:00:04.143Z,6.50
2022-11-27T05:02:52.267Z,4.85
2022-11-27T05:05:39.907Z,3.85
2022-11-27T05:08:30.457Z,4.97
2022-11-27T05:11:18.374Z,4.53
2022-11-27T05:14:15.170Z,6.43
2022-11-27T05:17:02.898Z,4.18
2022-11-27T05:19:50.626Z,3.80
2022-11-27T05:22:38.299Z,4.75
2022-11-27T05:25:25.975Z,3.83
2022-11-27T05:28:13.616Z,4.50
2022-11-27T05:31:01.633Z,4.63
2022-11-27T05:33:49.314Z,5.00
2022-11-27T05:36:37.391Z,4.22
2022-11-27T05:39:25.280Z,3.53
2022-11-27T05:42:12.935Z,4.90
2022-11-27T05:45:00.589Z,3.83
2022-11-27T05:47:48.256Z,4.00
2022-11-27T05:50:35.951Z,5.28
2022-11-27T05:53:25.791Z,5.07
2022-11-27T05:56:15.817Z,4.72
2022-11-27T05:59:03.547Z,5.25
2022-11-27T06:01:51.700Z,4.63
2022-11-27T06:04:41.916Z,6.80
2022-11-27T06:10:33.586Z,5.30
2022-11-27T06:13:21.236Z,5.22
2022-11-27T06:16:16.530Z,5.43
2022-11-27T06:20:01.241Z,4.80
2022-11-27T06:23:09.442Z,4.78
2022-11-27T06:26:47.183Z,4.90
2022-11-27T06:30:07.374Z,5.15
2022-11-27T06:33:16.988Z,5.60
2022-11-27T06:36:31.761Z,5.47
2022-11-27T06:39:54.993Z,4.25
2022-11-27T06:43:55.208Z,6.65
2022-11-27T07:17:31.055Z,5.22
2022-11-27T07:20:18.942Z,5.03
2022-11-27T07:23:11.440Z,4.25
2022-11-27T07:25:59.252Z,4.28
2022-11-27T07:28:47.256Z,4.25
2022-11-27T07:31:35.112Z,4.80
2022-11-27T07:34:22.838Z,4.85
2022-11-27T07:37:10.444Z,6.88
2022-11-27T07:40:03.057Z,5.80
2022-11-27T07:42:51.250Z,5.25
2022-11-27T07:45:39.040Z,4.90
2022-11-27T07:48:26.833Z,4.78
2022-11-27T07:51:18.070Z,4.72
2022-11-27T07:54:05.726Z,5.03
2022-11-27T07:56:53.326Z,5.68
2022-11-27T07:59:45.770Z,6.40
2022-11-27T08:02:34.852Z,5.95
2022-11-27T08:05:22.737Z,5.80
2022-11-27T08:08:11.421Z,5.63
2022-11-27T08:11:00.568Z,4.53
2022-11-27T08:13:51.018Z,6.07
2022-11-27T08:16:40.424Z,5.53
2022-11-27T08:19:30.004Z,7.25
2022-11-27T08:22:27.465Z,5.38
2022-11-27T09:54:46.744Z,5.85
2022-11-27T09:57:41.749Z,5.18
2022-11-27T10:00:29.555Z,5.80
2022-11-27T10:03:24.112Z,5.82
2022-11-27T10:06:57.089Z,4.90
2022-11-27T10:09:50.707Z,4.60
2022-11-27T10:13:00.407Z,4.25
2022-11-27T10:16:02.981Z,4.70
2022-11-27T10:19:14.037Z,5.93
2022-11-27T10:22:19.602Z,4.70
2022-11-27T10:25:39.579Z,4.80
2022-11-27T10:28:36.652Z,5.28
2022-11-27T10:31:43.141Z,6.15
2022-11-27T10:34:38.749Z,5.13
2022-11-27T10:37:30.575Z,5.50
2022-11-27T10:40:26.554Z,5.90
2022-11-27T10:43:20.183Z,4.78
2022-11-27T10:46:15.412Z,5.30
2022-11-27T10:49:03.196Z,5.40
2022-11-27T10:51:50.924Z,5.55
2022-11-27T10:54:39.819Z,5.70
2022-11-27T10:57:53.203Z,7.30
2022-11-27T11:00:40.867Z,5.53
2022-11-27T11:03:28.583Z,5.50
2022-11-27T11:06:22.299Z,5.78
2022-11-27T11:09:18.110Z,5.68
2022-11-27T11:12:21.313Z,5.07
2022-11-27T11:15:11.482Z,5.80
2022-11-27T11:17:59.155Z,5.30
2022-11-27T11:20:56.440Z,5.93
2022-11-27T11:23:47.043Z,4.93
2022-11-27T11:26:38.326Z,5.53
2022-11-27T11:29:31.087Z,4.60
2022-11-27T11:32:29.749Z,5.20
2022-11-27T11:35:32.268Z,5.00
2022-11-27T11:38:32.887Z,5.07
2022-11-27T11:41:21.001Z,5.80
2022-11-27T11:44:23.916Z,5.25
2022-11-27T11:47:18.992Z,4.50
2022-11-27T11:50:13.446Z,5.55
2022-11-27T11:53:22.595Z,6.00
2022-11-27T11:56:35.255Z,7.75
2022-11-27T11:59:39.621Z,5.45
2022-11-27T12:03:08.356Z,5.95
2022-11-27T12:06:17.937Z,7.07
2022-11-27T12:09:46.427Z,6.03
2022-11-27T12:12:48.197Z,4.97
2022-11-27T12:16:14.681Z,9.45
2022-11-27T12:19:20.200Z,5.60
2022-11-27T12:22:23.235Z,6.65
2022-11-27T12:25:33.659Z,6.07
2022-11-27T12:28:30.443Z,6.22
2022-11-27T12:31:46.206Z,5.90
2022-11-27T12:34:44.204Z,5.82
2022-11-27T12:37:31.948Z,6.15
2022-11-27T12:40:34.109Z,6.40
2022-11-27T12:43:25.699Z,5.07
2022-11-27T12:46:24.210Z,5.05
2022-11-27T12:49:26.023Z,5.68
2022-11-27T12:52:22.538Z,5.38
2022-11-27T12:55:21.181Z,5.75
2022-11-27T12:58:41.278Z,6.10
2022-11-27T13:01:34.307Z,6.05
2022-11-27T13:04:37.185Z,7.50
2022-11-27T13:07:40.028Z,6.18
2022-11-27T13:10:32.311Z,5.75
2022-11-27T13:13:34.224Z,8.75
2022-11-27T13:16:41.259Z,6.35
2022-11-27T13:19:43.828Z,6.63
2022-11-27T13:22:36.130Z,6.88
2022-11-27T13:25:25.394Z,6.60
2022-11-27T13:28:41.767Z,6.25
2022-11-27T13:31:33.183Z,6.38
2022-11-27T13:34:24.327Z,6.80
2022-11-27T13:37:34.140Z,6.97
2022-11-27T13:40:46.709Z,6.68
2022-11-27T13:43:43.106Z,6.32
2022-11-27T13:46:32.278Z,7.28
2022-11-27T13:49:32.930Z,6.03
2022-11-27T13:52:21.316Z,7.20
2022-11-27T13:55:09.987Z,7.30
2022-11-27T13:58:00.104Z,7.18
2022-11-27T14:00:47.761Z,7.38
2022-11-27T14:03:36.611Z,6.63
2022-11-27T14:06:29.076Z,7.50
2022-11-27T14:09:16.755Z,7.40
2022-11-27T14:12:16.971Z,7.22
2022-11-27T14:15:25.751Z,6.30
2022-11-27T14:18:21.927Z,7.38
2022-11-27T14:21:26.216Z,5.68
2022-11-27T14:24:45.036Z,7.60
2022-11-27T14:27:36.630Z,6.85
2022-11-27T14:30:57.741Z,6.63
2022-11-27T14:34:13.442Z,5.88
2022-11-27T14:36:53.892Z,7.57
2022-11-27T14:39:41.647Z,6.95
2022-11-27T14:42:32.991Z,7.25
2022-11-27T14:45:23.950Z,7.32
2022-11-27T14:48:42.571Z,7.50
2022-11-27T14:51:33.598Z,6.47
2022-11-27T14:54:28.618Z,6.32
2022-11-27T14:57:35.226Z,6.80
2022-11-27T15:00:27.319Z,6.10
2022-11-27T15:03:18.168Z,6.38
2022-11-27T15:06:07.797Z,6.78
2022-11-27T15:09:23.634Z,6.82
2022-11-27T15:12:16.771Z,7.32
2022-11-27T15:15:27.668Z,7.88
2022-11-27T15:18:22.851Z,7.70
2022-11-27T15:21:13.376Z,5.53
2022-11-27T15:24:01.398Z,5.47
2022-11-27T15:26:49.848Z,5.72
2022-11-27T15:29:38.197Z,6.65
2022-11-27T15:32:27.784Z,5.85
2022-11-27T15:35:16.110Z,5.80
2022-11-27T15:38:10.884Z,5.40
2022-11-27T15:41:00.876Z,5.15
2022-11-27T15:43:48.584Z,6.63
2022-11-27T15:46:36.299Z,5.45
2022-11-27T15:49:25.111Z,6.00
2022-11-27T15:52:13.016Z,6.03
2022-11-27T15:55:03.086Z,5.20
2022-11-27T15:57:50.911Z,5.60
2022-11-27T16:00:39.962Z,5.95
2022-11-27T16:03:28.558Z,7.75
2022-11-27T16:06:16.462Z,7.60
2022-11-27T16:09:05.121Z,7.07
2022-11-27T16:11:53.148Z,6.30
2022-11-27T16:14:41.005Z,6.65
2022-11-27T16:17:28.967Z,5.70
2022-11-27T16:20:18.703Z,5.05
2022-11-27T16:23:16.118Z,5.55
2022-11-27T16:26:04.492Z,5.93
2022-11-27T16:28:52.221Z,5.65
2022-11-27T16:31:40.497Z,5.75
2022-11-27T16:34:28.303Z,5.07
2022-11-27T16:37:18.501Z,5.32
2022-11-27T16:40:09.517Z,5.35
2022-11-27T16:43:01.497Z,5.40
2022-11-27T16:45:54.844Z,4.72
2022-11-27T16:48:50.108Z,6.18
2022-11-27T16:52:45.757Z,5.35
2022-11-27T16:56:52.198Z,4.32
2022-11-27T16:59:41.413Z,5.97
2022-11-27T17:03:15.160Z,6.80
2022-11-27T17:10:55.904Z,5.80
2022-11-27T17:13:44.825Z,5.97
2022-11-27T17:16:34.118Z,5.75
2022-11-27T17:19:27.277Z,7.18
2022-11-27T17:22:19.951Z,7.45
2022-11-27T17:25:18.330Z,6.55
2022-11-27T17:28:07.976Z,6.78
2022-11-27T17:30:58.432Z,5.82
2022-11-27T17:33:48.344Z,5.25
2022-11-27T17:36:42.075Z,6.25
2022-11-27T17:39:38.781Z,5.38
2022-11-27T17:42:27.988Z,6.18
2022-11-27T17:45:25.773Z,6.22
2022-11-27T17:48:16.577Z,7.65
2022-11-27T17:51:07.177Z,7.30
2022-11-27T17:54:05.481Z,7.50
2022-11-27T17:57:21.113Z,8.05
2022-11-27T18:00:40.248Z,7.68
2022-11-27T18:04:01.474Z,7.40
2022-11-27T18:06:52.744Z,6.15
2022-11-27T18:09:56.340Z,7.30
2022-11-27T18:12:52.263Z,7.28
2022-11-27T18:15:45.184Z,6.75
2022-11-27T18:18:35.504Z,6.82
2022-11-27T18:21:31.173Z,7.35
2022-11-27T18:24:23.540Z,7.57
2022-11-27T18:27:15.494Z,6.88
2022-11-27T18:30:05.893Z,7.65
2022-11-27T18:33:11.388Z,6.72
2022-11-27T18:36:01.004Z,7.20
2022-11-27T18:39:14.649Z,6.95
2022-11-27T18:42:05.343Z,6.30
2022-11-27T18:44:54.518Z,7.60
2022-11-27T18:47:45.885Z,6.97
2022-11-27T18:50:36.595Z,6.53
2022-11-27T18:53:24.496Z,8.65
2022-11-27T18:56:40.146Z,6.70
2022-11-27T18:59:34.118Z,5.50
2022-11-27T19:02:27.127Z,6.90
2022-11-27T19:05:17.919Z,5.10
2022-11-27T19:08:08.998Z,6.20
2022-11-27T19:11:01.621Z,7.40
2022-11-27T19:13:50.949Z,6.97
2022-11-27T19:16:45.456Z,6.75
2022-11-27T19:20:04.723Z,6.35
2022-11-27T19:22:41.697Z,6.78
2022-11-27T19:25:29.483Z,5.82
2022-11-27T19:28:17.323Z,6.80
2022-11-27T19:31:07.363Z,7.50
2022-11-27T19:33:58.747Z,7.10
2022-11-27T19:36:46.634Z,5.90
2022-11-27T19:39:34.229Z,6.25
2022-11-27T19:42:21.958Z,5.38
2022-11-27T19:45:10.474Z,6.20
2022-11-27T19:47:58.103Z,5.75
2022-11-27T19:50:46.396Z,6.97
2022-11-27T19:53:34.427Z,6.15
2022-11-27T19:56:22.087Z,6.43
2022-11-27T19:59:11.139Z,6.88
2022-11-27T20:02:00.586Z,7.70
2022-11-27T20:04:49.516Z,7.13
2022-11-27T20:07:37.682Z,6.07
2022-11-27T20:10:25.623Z,8.05
2022-11-27T20:13:13.335Z,6.78
2022-11-27T20:16:01.402Z,7.22
2022-11-27T20:18:49.298Z,6.22
2022-11-27T20:21:39.487Z,7.30
2022-11-27T20:24:27.418Z,6.90
2022-11-27T20:27:15.208Z,7.43
2022-11-27T20:30:05.138Z,7.18
2022-11-27T20:32:54.676Z,7.18
2022-11-27T20:35:42.970Z,7.22
2022-11-27T20:38:30.695Z,7.43
2022-11-27T20:41:20.576Z,7.10
2022-11-27T20:44:13.717Z,7.93
2022-11-27T20:47:01.375Z,7.93
2022-11-27T20:49:49.018Z,7.20
2022-11-27T20:52:36.646Z,7.25
2022-11-27T20:55:24.516Z,7.90
2022-11-27T20:58:12.660Z,6.95
2022-11-27T21:01:00.311Z,7.95
2022-11-27T21:03:50.618Z,7.90
2022-11-27T21:06:43.712Z,9.48
2022-11-27T21:09:32.192Z,7.85
2022-11-27T21:12:19.822Z,7.88
2022-11-27T21:15:08.247Z,6.85
2022-11-27T21:17:55.845Z,5.80
2022-11-27T21:20:43.649Z,6.90
2022-11-27T21:23:31.326Z,7.85
2022-11-27T21:26:19.081Z,7.28
2022-11-27T21:29:07.358Z,7.57
2022-11-27T21:31:55.400Z,7.82
2022-11-27T21:34:43.647Z,8.25
2022-11-27T21:37:31.670Z,8.43
2022-11-27T21:40:19.538Z,8.60
2022-11-27T21:43:07.703Z,7.75
2022-11-27T21:45:55.790Z,8.27
2022-11-27T21:48:45.044Z,7.72
2022-11-27T21:51:32.677Z,7.75
2022-11-27T21:54:24.482Z,6.85
2022-11-27T21:57:12.149Z,7.32
2022-11-27T21:59:59.928Z,7.40
2022-11-27T22:02:47.656Z,6.95
2022-11-27T22:05:35.400Z,7.03
2022-11-27T22:08:22.959Z,8.27
2022-11-27T22:11:13.213Z,7.43
2022-11-27T22:14:04.598Z,6.15
2022-11-27T22:16:53.272Z,7.30
2022-11-27T22:19:42.423Z,7.35
2022-11-27T22:22:30.016Z,5.95
2022-11-27T22:25:18.056Z,7.00
2022-11-27T22:28:05.781Z,6.88
2022-11-27T22:30:53.610Z,7.55
2022-11-27T22:33:42.426Z,5.85
2022-11-27T22:36:34.780Z,5.68
2022-11-27T22:39:22.415Z,5.80
2022-11-27T22:42:10.391Z,7.45
2022-11-27T22:44:58.136Z,6.70
2022-11-27T22:47:45.698Z,7.60
2022-11-27T22:50:34.024Z,6.68
2022-11-27T22:53:21.738Z,7.70
2022-11-27T22:56:12.060Z,7.55
2022-11-27T22:59:24.509Z,6.35
2022-11-27T23:02:08.616Z,6.57
2022-11-27T23:04:56.228Z,7.25
2022-11-27T23:07:44.059Z,7.85
2022-11-27T23:10:31.774Z,6.20
2022-11-27T23:13:19.862Z,6.88
2022-11-27T23:16:08.267Z,6.43
2022-11-27T23:18:56.008Z,7.38
2022-11-27T23:21:43.812Z,6.53
2022-11-27T23:24:31.411Z,6.20
2022-11-27T23:27:19.089Z,6.55
2022-11-27T23:30:07.570Z,6.60
2022-11-27T23:32:55.231Z,6.40
2022-11-27T23:35:42.891Z,6.05
2022-11-27T23:38:30.541Z,6.45
2022-11-27T23:41:21.887Z,7.50
2022-11-27T23:44:09.813Z,6.88
2022-11-27T23:46:57.378Z,7.20
2022-11-27T23:49:45.044Z,6.40
2022-11-27T23:52:32.837Z,7.90
2022-11-27T23:55:20.649Z,6.43
2022-11-27T23:58:08.310Z,6.68
